Time;durP1;ratioP1;P1;durP2;ratioP2;P2;SDS_P1;SDS_P2;PMS_P1;PMS_P2;Temp;Humidity;BMP_temperature;BMP_pressure;BME280_temperature;BME280_humidity;BME280_pressure;Samples;Min_cycle;Max_cycle;Signal;HPM_P1;HPM_P2
2022/12/15 00:40:57;;;;;;;9.25;4.60;;;;;;;-7.38;76.73;100063.13;5111138;28;20038;-65
2022/12/15 00:43:24;;;;;;;8.73;4.40;;;;;;;-7.38;76.70;100060.50;5112040;28;20111;-65
2022/12/15 00:48:33;;;;;;;7.72;3.97;;;;;;;-7.41;76.57;100056.31;5090766;28;20082;-65
2022/12/15 00:50:59;;;;;;;9.68;4.60;;;;;;;-7.41;76.73;100063.31;5094878;28;20032;-65
2022/12/15 01:21:03;;;;;;;7.38;4.13;;;;;;;-7.72;75.89;100064.50;5107074;28;20038;-65
2022/12/15 01:23:30;;;;;;;7.88;4.47;;;;;;;-7.83;76.13;100073.88;5108107;28;20459;-65
2022/12/15 01:25:55;;;;;;;6.93;3.95;;;;;;;-7.82;76.05;100072.94;5115801;28;20055;-65
2022/12/15 01:28:26;;;;;;;8.70;4.40;;;;;;;-7.85;76.10;100073.16;5098928;28;20032;-65
2022/12/15 01:30:51;;;;;;;7.50;4.13;;;;;;;-7.95;75.46;100076.44;5107107;28;20034;-65
2022/12/15 01:33:18;;;;;;;7.32;4.15;;;;;;;-7.99;75.96;100083.63;5107891;28;20036;-65
2022/12/15 01:35:44;;;;;;;7.18;3.80;;;;;;;-7.98;75.71;100081.84;5114177;28;20417;-65
2022/12/15 01:38:09;;;;;;;6.93;4.18;;;;;;;-8.08;76.28;100072.03;5101724;28;20020;-65
2022/12/15 01:40:45;;;;;;;5.93;3.58;;;;;;;-8.05;75.94;100070.97;5114383;28;20032;-66
2022/12/15 01:43:19;;;;;;;6.72;3.83;;;;;;;-8.07;75.50;100076.31;5109086;28;20030;-71
2022/12/15 01:45:55;;;;;;;7.20;3.65;;;;;;;-8.08;76.08;100077.25;5104763;28;20114;-66
2022/12/15 01:48:31;;;;;;;7.22;3.58;;;;;;;-8.32;75.88;100037.88;5114726;28;20103;-65
2022/12/15 01:51:05;;;;;;;6.05;3.97;;;;;;;-8.12;75.59;100082.75;5105703;28;20102;-65
2022/12/15 01:53:36;;;;;;;11.55;3.92;;;;;;;-8.27;75.26;100069.75;5104531;28;20377;-65
2022/12/15 01:56:04;;;;;;;7.18;3.67;;;;;;;-8.24;74.87;100070.47;5114083;28;20039;-65
2022/12/15 01:58:30;;;;;;;7.68;3.70;;;;;;;-8.30;75.75;100093.44;5102083;28;20038;-65
2022/12/15 02:00:56;;;;;;;6.95;3.67;;;;;;;-8.22;75.55;100086.88;5111540;28;20032;-65
2022/12/15 02:03:22;;;;;;;7.55;3.88;;;;;;;-8.26;75.69;100081.03;5108840;28;20044;-66
2022/12/15 02:05:47;;;;;;;9.00;4.53;;;;;;;-8.28;75.53;100088.97;5103977;28;20032;-66
2022/12/15 02:08:13;;;;;;;6.10;3.60;;;;;;;-8.37;75.52;100065.22;5115543;28;20039;-66
2022/12/15 02:10:54;;;;;;;6.78;3.88;;;;;;;-8.22;75.22;100085.09;5102512;28;20055;-65
2022/12/15 02:13:23;;;;;;;7.65;3.60;;;;;;;-8.22;75.51;100085.09;5106032;28;20155;-67
2022/12/15 02:16:00;;;;;;;7.15;3.78;;;;;;;-8.21;75.37;100081.56;5113039;28;20032;-66
2022/12/15 02:18:37;;;;;;;7.35;3.50;;;;;;;-8.41;75.24;100048.09;5085609;28;20081;-66
2022/12/15 02:21:05;;;;;;;5.93;3.15;;;;;;;-8.21;74.93;100086.78;5109478;28;20031;-66
2022/12/15 02:23:58;;;;;;;7.22;3.78;;;;;;;-8.22;75.08;100081.66;5114072;28;20027;-66
2022/12/15 02:26:44;;;;;;;5.88;3.35;;;;;;;-8.25;75.43;100079.25;5106460;28;20386;-67
2022/12/15 02:29:26;;;;;;;6.40;3.70;;;;;;;-8.49;75.01;100050.34;5112511;28;20007;-65
2022/12/15 02:31:59;;;;;;;4.65;2.95;;;;;;;-8.33;75.08;100082.34;5118314;28;20122;-66
2022/12/15 02:34:40;;;;;;;6.47;3.50;;;;;;;-8.34;74.79;100078.06;5105586;28;20057;-67
2022/12/15 02:37:17;;;;;;;6.07;3.13;;;;;;;-8.38;74.83;100087.03;5120362;28;20075;-69
2022/12/15 02:39:43;;;;;;;7.90;3.70;;;;;;;-8.36;75.10;100090.38;5126505;28;20042;-71
2022/12/15 02:42:11;;;;;;;5.68;3.65;;;;;;;-8.36;74.94;100090.38;5114140;28;20036;-65
2022/12/15 02:44:40;;;;;;;6.10;3.85;;;;;;;-8.36;75.27;100093.81;5115727;28;20031;-66
2022/12/15 02:47:17;;;;;;;7.82;3.83;;;;;;;-8.32;74.66;100094.44;5111186;28;20050;-66
2022/12/15 02:50:20;;;;;;;7.35;4.20;;;;;;;-8.34;74.51;100091.13;5108862;28;20043;-66
2022/12/15 02:53:10;;;;;;;6.53;3.40;;;;;;;-8.38;74.29;100098.31;5095994;28;20387;-66
2022/12/15 02:55:45;;;;;;;6.40;3.55;;;;;;;-8.42;75.00;100103.81;5109907;28;20035;-66
2022/12/15 02:58:26;;;;;;;7.47;3.33;;;;;;;-8.45;74.44;100110.06;5119289;28;20032;-70
2022/12/15 03:01:07;;;;;;;7.78;3.88;;;;;;;-8.50;75.04;100106.91;5110775;28;20028;-67
2022/12/15 03:03:34;;;;;;;7.10;3.85;;;;;;;-8.47;74.66;100121.53;5113324;28;20066;-67
2022/12/15 03:06:01;;;;;;;6.55;3.60;;;;;;;-8.73;74.55;100082.25;5120833;28;20035;-70
2022/12/15 03:08:27;;;;;;;6.88;3.78;;;;;;;-8.53;74.12;100118.38;5091258;28;20023;-66
2022/12/15 03:10:54;;;;;;;7.13;4.07;;;;;;;-8.55;74.40;100116.78;5116682;28;20050;-70
2022/12/15 03:13:20;;;;;;;7.40;3.92;;;;;;;-8.59;74.47;100118.75;5114449;28;20035;-68
2022/12/15 03:15:45;;;;;;;7.20;3.58;;;;;;;-8.60;74.35;100122.28;5110123;28;20035;-66
2022/12/15 03:18:11;;;;;;;6.10;3.50;;;;;;;-8.61;73.92;100115.41;5102694;28;20036;-67
2022/12/15 03:20:40;;;;;;;5.63;3.58;;;;;;;-8.64;74.47;100120.81;5107403;28;20023;-66
2022/12/15 03:23:07;;;;;;;9.30;4.20;;;;;;;-8.69;74.48;100122.84;5114501;28;20039;-66
2022/12/15 03:25:32;;;;;;;8.80;4.10;;;;;;;-8.74;73.99;100117.06;5117043;28;20535;-65
2022/12/15 03:27:58;;;;;;;6.38;3.58;;;;;;;-8.70;74.03;100133.38;5090182;28;20036;-66
2022/12/15 03:30:23;;;;;;;8.82;4.47;;;;;;;-8.71;75.33;100134.28;5119218;28;20062;-69
2022/12/15 03:32:48;;;;;;;7.18;3.35;;;;;;;-8.84;74.56;100100.28;5092080;28;20047;-64
2022/12/15 03:35:14;;;;;;;7.78;4.20;;;;;;;-8.90;74.40;100087.66;5112878;28;20405;-66
2022/12/15 03:37:41;;;;;;;9.43;4.00;;;;;;;-8.69;74.47;100130.66;5102767;28;20067;-66
2022/12/15 03:40:08;;;;;;;8.07;3.85;;;;;;;-8.64;74.43;100131.25;5110771;28;20028;-66
2022/12/15 03:42:49;;;;;;;8.80;4.40;;;;;;;-8.62;74.66;100128.53;5124135;28;20023;-66
2022/12/15 03:45:23;;;;;;;7.05;3.97;;;;;;;-8.93;74.42;100078.25;5116469;28;20069;-65
2022/12/15 03:47:49;;;;;;;6.25;3.75;;;;;;;-8.68;73.93;100121.06;5095166;28;20055;-66
2022/12/15 03:50:18;;;;;;;6.05;3.60;;;;;;;-8.72;74.45;100125.63;5123367;28;20066;-71
2022/12/15 03:52:44;;;;;;;8.98;3.95;;;;;;;-8.78;74.22;100129.44;5111869;28;20058;-68
2022/12/15 03:55:10;;;;;;;7.15;3.40;;;;;;;-8.82;74.34;100137.56;5119156;28;20403;-66
2022/12/15 03:57:36;;;;;;;7.90;4.28;;;;;;;-8.83;74.03;100135.88;5118607;28;20027;-66
2022/12/15 04:00:04;;;;;;;7.38;3.72;;;;;;;-8.88;74.34;100135.31;5111621;28;20032;-66
2022/12/15 04:02:29;;;;;;;7.57;3.70;;;;;;;-8.86;74.44;100139.50;5093173;28;20047;-65
2022/12/15 04:04:55;;;;;;;7.63;3.97;;;;;;;-8.91;74.27;100131.09;5119154;28;20058;-65
2022/12/15 04:07:20;;;;;;;5.45;3.25;;;;;;;-8.91;73.71;100149.34;5099652;28;20040;-69
2022/12/15 04:09:46;;;;;;;7.47;3.92;;;;;;;-8.92;73.81;100145.09;5095223;28;20036;-66
2022/12/15 04:12:11;;;;;;;6.95;3.58;;;;;;;-8.94;73.73;100151.31;5105691;28;20027;-66
2022/12/15 04:14:41;;;;;;;5.53;3.17;;;;;;;-9.08;74.11;100144.31;5110144;28;20040;-65
2022/12/15 04:17:10;;;;;;;6.93;3.63;;;;;;;-9.07;74.76;100154.66;5110390;28;20423;-65
2022/12/15 04:22:20;;;;;;;5.22;3.10;;;;;;;-9.05;75.61;100157.16;5103201;28;20097;-65
2022/12/15 05:33:08;;;;;;;7.05;3.97;;;;;;;-8.86;74.19;100194.25;5106869;28;20038;-67
2022/12/15 05:35:35;;;;;;;6.88;3.97;;;;;;;-8.88;73.73;100201.31;5105435;28;20405;-67
2022/12/15 05:38:01;;;;;;;7.75;3.95;;;;;;;-8.91;73.91;100193.69;5096016;28;20040;-68
2022/12/15 05:40:26;;;;;;;7.63;4.10;;;;;;;-8.86;73.96;100203.84;5100089;28;20035;-67
2022/12/15 05:42:51;;;;;;;8.23;3.97;;;;;;;-8.84;74.20;100199.38;5110467;28;20064;-67
2022/12/15 05:45:17;;;;;;;7.40;3.80;;;;;;;-8.95;73.35;100188.75;5107984;28;20032;-66
2022/12/15 05:47:42;;;;;;;7.22;4.13;;;;;;;-8.87;74.03;100199.53;5086106;28;20039;-67
2022/12/15 05:50:08;;;;;;;8.20;4.20;;;;;;;-8.78;73.89;100206.84;5114632;28;20034;-66
2022/12/15 05:52:33;;;;;;;8.75;4.35;;;;;;;-8.73;74.49;100210.03;5100417;28;20028;-68
2022/12/15 05:54:59;;;;;;;7.32;3.97;;;;;;;-8.67;74.18;100220.09;5075771;28;20103;-68
2022/12/15 05:57:24;;;;;;;8.60;4.53;;;;;;;-8.63;74.49;100213.75;5107710;28;20036;-67
2022/12/15 05:59:50;;;;;;;9.30;4.90;;;;;;;-8.66;73.97;100220.94;5101537;28;20028;-67
2022/12/15 06:02:15;;;;;;;5.57;3.60;;;;;;;-8.69;74.14;100216.72;5112658;28;20139;-67
2022/12/15 06:04:44;;;;;;;6.90;4.00;;;;;;;-8.77;73.93;100211.13;5101001;28;20581;-68
2022/12/15 06:07:09;;;;;;;7.13;4.38;;;;;;;-8.75;74.38;100219.69;5107951;28;20032;-67
2022/12/15 06:09:35;;;;;;;9.30;4.45;;;;;;;-8.73;74.14;100224.84;5109591;28;20039;-67
2022/12/15 06:12:00;;;;;;;8.73;3.95;;;;;;;-8.72;74.36;100224.72;5100548;28;20059;-69
2022/12/15 06:14:26;;;;;;;8.43;3.88;;;;;;;-8.68;74.21;100225.38;5095707;28;20028;-69
2022/12/15 06:16:51;;;;;;;7.65;4.45;;;;;;;-8.66;74.22;100237.41;5083418;28;20087;-67
2022/12/15 06:19:18;;;;;;;7.85;4.28;;;;;;;-8.69;74.29;100231.53;5087728;28;20024;-68
2022/12/15 06:21:44;;;;;;;7.30;4.03;;;;;;;-8.85;74.91;100245.47;5107574;28;20505;-68
2022/12/15 06:24:09;;;;;;;8.95;4.57;;;;;;;-8.71;75.35;100243.81;5097022;28;20449;-66
2022/12/15 06:26:37;;;;;;;6.30;3.88;;;;;;;-8.59;75.20;100237.88;5111481;28;20080;-66
2022/12/15 06:29:06;;;;;;;8.68;4.10;;;;;;;-8.63;75.12;100239.84;5102208;27;20036;-67
2022/12/15 06:31:32;;;;;;;9.00;4.45;;;;;;;-8.65;75.02;100244.28;5104396;28;20028;-66
2022/12/15 06:33:58;;;;;;;8.90;5.00;;;;;;;-8.53;74.87;100243.56;5110806;28;20023;-68
2022/12/15 06:36:24;;;;;;;8.90;4.60;;;;;;;-8.47;74.85;100236.31;5100566;28;20047;-66
2022/12/15 06:38:51;;;;;;;8.02;4.28;;;;;;;-8.55;75.22;100239.38;5092961;28;20035;-66
2022/12/15 06:41:18;;;;;;;6.70;3.97;;;;;;;-8.43;75.12;100248.25;5106677;28;20036;-66
2022/12/15 06:43:51;;;;;;;7.53;4.45;;;;;;;-8.52;74.93;100229.59;5103645;28;20031;-66
2022/12/15 06:46:17;;;;;;;6.90;4.05;;;;;;;-8.41;75.25;100264.63;5112224;28;20031;-66
2022/12/15 06:48:44;;;;;;;6.95;4.43;;;;;;;-8.31;74.92;100268.34;5101233;28;20027;-66
2022/12/15 06:51:12;;;;;;;6.95;4.28;;;;;;;-8.28;75.10;100269.03;5108015;28;20120;-66
2022/12/15 06:53:39;;;;;;;8.60;4.40;;;;;;;-8.18;74.83;100271.88;5109394;28;20019;-66
2022/12/15 06:56:10;;;;;;;7.68;4.55;;;;;;;-8.27;74.97;100260.25;5100621;28;20039;-66
2022/12/15 06:58:36;;;;;;;9.93;4.82;;;;;;;-8.11;74.40;100277.56;5084099;28;20047;-66
2022/12/15 07:01:06;;;;;;;8.05;4.43;;;;;;;-8.05;75.54;100285.88;5108280;28;20032;-65
2022/12/15 07:03:33;;;;;;;8.95;4.47;;;;;;;-8.04;74.98;100277.13;5107830;28;20043;-65
2022/12/15 07:06:04;;;;;;;7.53;4.47;;;;;;;-8.01;75.00;100280.47;5100011;28;20028;-66
2022/12/15 07:08:30;;;;;;;8.43;4.88;;;;;;;-8.02;75.24;100279.63;5112631;28;20141;-66
2022/12/15 07:10:55;;;;;;;7.90;4.93;;;;;;;-8.22;74.43;100252.13;5102087;28;20048;-67
2022/12/15 07:13:20;;;;;;;9.05;4.72;;;;;;;-8.02;74.86;100284.03;5106895;28;20032;-65
2022/12/15 07:15:48;;;;;;;10.02;4.55;;;;;;;-8.03;74.65;100291.00;5108224;28;20028;-66
2022/12/15 07:18:19;;;;;;;8.57;4.85;;;;;;;-8.15;75.89;100297.81;5099594;28;20051;-68
2022/12/15 07:20:44;;;;;;;9.15;5.45;;;;;;;-8.19;75.89;100296.31;5113421;28;20106;-71
2022/12/15 07:23:10;;;;;;;10.05;5.40;;;;;;;-7.99;75.21;100307.34;5105135;28;20081;-68
2022/12/15 07:25:36;;;;;;;9.55;5.45;;;;;;;-8.13;75.55;100271.63;5103714;28;20425;-67
2022/12/15 07:28:02;;;;;;;9.40;5.25;;;;;;;-7.86;75.35;100310.88;5111259;28;20027;-67
2022/12/15 07:30:27;;;;;;;8.35;4.80;;;;;;;-7.88;74.79;100323.16;5097342;28;20034;-67
2022/12/15 07:32:53;;;;;;;8.90;5.30;;;;;;;-7.90;75.23;100335.50;5107152;28;20046;-67
2022/12/15 07:35:18;;;;;;;8.43;5.40;;;;;;;-7.87;75.08;100336.16;5085142;28;20425;-66
2022/12/15 07:37:44;;;;;;;12.05;5.65;;;;;;;-7.87;74.72;100338.75;5102526;28;20043;-67
2022/12/15 07:40:11;;;;;;;16.13;5.53;;;;;;;-7.88;75.12;100344.94;5110668;28;20040;-66
2022/12/15 07:42:36;;;;;;;11.40;5.47;;;;;;;-8.03;74.74;100309.28;5096376;28;20052;-68
2022/12/15 07:45:05;;;;;;;9.88;5.50;;;;;;;-7.87;74.60;100344.00;5106012;28;20062;-67
2022/12/15 07:47:31;;;;;;;10.02;5.20;;;;;;;-7.92;74.48;100343.41;5104133;28;20031;-67
2022/12/15 07:49:57;;;;;;;9.95;5.45;;;;;;;-8.08;74.83;100327.84;5099516;28;20032;-67
2022/12/15 07:52:23;;;;;;;9.02;5.20;;;;;;;-7.94;74.57;100350.53;5110701;28;20032;-67
2022/12/15 07:54:48;;;;;;;7.97;4.55;;;;;;;-7.91;75.01;100360.78;5101222;28;20023;-66
2022/12/15 07:57:15;;;;;;;10.98;5.10;;;;;;;-7.90;74.74;100359.00;5107598;28;20123;-66
2022/12/15 07:59:40;;;;;;;9.35;5.25;;;;;;;-8.10;76.00;100362.81;5074027;28;20043;-66
2022/12/15 08:02:06;;;;;;;10.80;5.00;;;;;;;-7.93;75.39;100370.47;5098454;28;20052;-67
2022/12/15 08:04:32;;;;;;;9.30;4.50;;;;;;;-7.83;75.42;100368.16;5094612;28;20036;-66
2022/12/15 08:07:00;;;;;;;10.18;5.15;;;;;;;-7.89;75.10;100342.41;5084707;28;20043;-66
2022/12/15 08:09:26;;;;;;;8.32;4.78;;;;;;;-7.65;74.87;100387.94;5104503;28;20043;-66
2022/12/15 08:11:53;;;;;;;8.52;5.28;;;;;;;-7.71;74.34;100369.19;5108921;28;20055;-66
2022/12/15 08:14:18;;;;;;;8.20;4.53;;;;;;;-7.56;75.24;100389.13;5097763;28;20491;-66
2022/12/15 08:16:44;;;;;;;8.52;5.40;;;;;;;-7.48;74.71;100393.88;5111431;28;20077;-67
2022/12/15 08:19:14;;;;;;;8.57;5.47;;;;;;;-7.49;74.79;100386.97;5104302;28;20059;-67
2022/12/15 08:21:40;;;;;;;8.93;5.47;;;;;;;-7.46;74.91;100402.47;5102143;28;20498;-67
2022/12/15 08:24:07;;;;;;;10.93;6.82;;;;;;;-7.46;74.11;100400.69;5114281;28;20062;-67
2022/12/15 08:26:33;;;;;;;26.80;11.05;;;;;;;-7.57;74.51;100398.75;5102860;28;20019;-67
2022/12/15 08:29:03;;;;;;;48.75;19.95;;;;;;;-7.49;74.58;100407.88;5111739;28;20058;-66
2022/12/15 08:31:31;;;;;;;18.98;8.25;;;;;;;-7.43;74.22;100405.75;5109009;28;20032;-66
2022/12/15 08:33:57;;;;;;;32.08;12.55;;;;;;;-7.40;74.40;100409.94;5103605;28;20020;-66
2022/12/15 08:36:23;;;;;;;29.02;12.43;;;;;;;-7.38;74.58;100405.47;5116176;28;20039;-67
2022/12/15 08:38:51;;;;;;;22.35;10.02;;;;;;;-7.35;74.34;100402.66;5104528;28;20023;-69
2022/12/15 08:41:25;;;;;;;14.13;7.20;;;;;;;-7.30;74.67;100411.06;5110035;28;20558;-66
2022/12/15 08:43:52;;;;;;;10.18;5.65;;;;;;;-7.44;74.05;100408.47;5111950;28;20038;-67
2022/12/15 08:46:23;;;;;;;13.07;6.35;;;;;;;-7.40;74.27;100413.41;5101145;28;20046;-67
2022/12/15 08:48:49;;;;;;;12.00;5.97;;;;;;;-7.35;73.62;100411.34;5112966;28;20077;-67
2022/12/15 08:51:16;;;;;;;9.15;5.50;;;;;;;-7.28;73.81;100417.03;5107848;28;20031;-67
2022/12/15 08:53:41;;;;;;;9.40;5.53;;;;;;;-7.21;73.82;100420.13;5088572;28;20027;-67
2022/12/15 08:56:14;;;;;;;10.00;5.68;;;;;;;-7.36;73.62;100390.53;5113893;28;20027;-66
2022/12/15 08:58:40;;;;;;;9.43;5.22;;;;;;;-7.07;73.94;100424.47;5085495;28;20027;-67
2022/12/15 09:01:16;;;;;;;26.83;10.57;;;;;;;-7.18;74.26;100433.00;5110472;28;20453;-67
2022/12/15 09:03:42;;;;;;;33.47;11.35;;;;;;;-7.13;74.02;100421.31;5110053;28;20047;-67
2022/12/15 09:06:13;;;;;;;34.47;12.27;;;;;;;-6.96;74.35;100437.72;5103028;28;20077;-66
2022/12/15 09:08:39;;;;;;;25.85;9.90;;;;;;;-6.98;73.95;100405.59;5085176;28;20051;-66
2022/12/15 09:11:05;;;;;;;22.42;8.10;;;;;;;-6.79;73.95;100427.00;5110494;28;20028;-66
2022/12/15 09:13:31;;;;;;;33.22;10.63;;;;;;;-6.65;73.53;100431.41;5109269;28;20379;-66
2022/12/15 09:16:01;;;;;;;28.90;11.15;;;;;;;-6.94;73.87;100400.06;5103046;28;20047;-67
2022/12/15 09:18:26;;;;;;;13.38;6.13;;;;;;;-6.75;74.03;100431.13;5114253;28;20056;-67
2022/12/15 09:21:04;;;;;;;15.63;5.25;;;;;;;-6.60;73.77;100433.72;5102608;28;20088;-67
2022/12/15 09:23:29;;;;;;;9.52;5.32;;;;;;;-6.35;73.73;100446.06;5106460;28;20034;-67
2022/12/15 09:26:03;;;;;;;9.18;4.82;;;;;;;-6.15;73.86;100442.97;5112758;28;20031;-67
2022/12/15 09:28:29;;;;;;;8.30;4.72;;;;;;;-5.95;73.58;100450.34;5101802;28;20025;-66
2022/12/15 09:31:05;;;;;;;7.10;4.72;;;;;;;-5.90;73.55;100442.97;5094106;28;20028;-66
2022/12/15 09:33:33;;;;;;;10.23;4.63;;;;;;;-5.75;73.40;100443.72;5107709;28;20038;-66
2022/12/15 09:35:58;;;;;;;8.52;5.07;;;;;;;-5.72;72.98;100432.22;5101855;28;20036;-67
2022/12/15 09:38:24;;;;;;;8.75;4.90;;;;;;;-5.44;73.25;100466.06;5113681;28;20036;-66
2022/12/15 09:40:50;;;;;;;12.50;5.70;;;;;;;-5.38;73.15;100462.19;5085158;28;20091;-66
2022/12/15 09:43:21;;;;;;;32.45;14.35;;;;;;;-5.46;72.92;100446.16;5111443;28;20117;-75
2022/12/15 09:45:55;;;;;;;38.55;17.73;;;;;;;-5.06;72.98;100467.84;5116002;28;20036;-75
2022/12/15 09:48:23;;;;;;;12.57;7.05;;;;;;;-4.90;73.12;100477.25;5104140;28;20032;-67
2022/12/15 09:50:52;;;;;;;15.18;7.38;;;;;;;-4.81;72.81;100477.44;5112368;28;20540;-67
2022/12/15 09:53:21;;;;;;;15.30;8.15;;;;;;;-4.63;73.02;100469.22;5104285;28;20035;-66
2022/12/15 09:56:02;;;;;;;17.55;9.90;;;;;;;-4.60;73.14;100472.47;5102675;28;20031;-66
2022/12/15 09:59:04;;;;;;;18.20;10.75;;;;;;;-4.49;72.82;100472.50;5114221;28;20031;-67
2022/12/15 10:01:49;;;;;;;20.15;11.35;;;;;;;-4.42;72.42;100474.69;5107053;28;20089;-66
2022/12/15 10:04:20;;;;;;;18.33;9.70;;;;;;;-4.45;72.71;100475.75;5098784;28;20128;-67
2022/12/15 10:07:05;;;;;;;12.20;7.53;;;;;;;-4.46;72.46;100474.09;5113569;28;20051;-66
2022/12/15 10:09:30;;;;;;;11.65;7.25;;;;;;;-4.42;72.89;100475.53;5108620;28;20123;-67
2022/12/15 10:12:14;;;;;;;10.38;6.97;;;;;;;-4.36;72.67;100455.88;5101952;28;20158;-67
2022/12/15 10:15:15;;;;;;;11.48;6.35;;;;;;;-4.10;72.53;100483.69;5084844;28;20020;-67
2022/12/15 10:17:56;;;;;;;11.00;5.95;;;;;;;-4.03;72.47;100482.28;5076186;28;20148;-67
2022/12/15 10:20:25;;;;;;;10.93;6.05;;;;;;;-3.91;72.42;100492.84;5114300;28;20031;-66
2022/12/15 10:22:52;;;;;;;12.95;6.25;;;;;;;-4.00;72.90;100447.06;5101756;28;20582;-67
2022/12/15 10:25:21;;;;;;;10.90;6.90;;;;;;;-3.63;72.38;100492.47;5108896;28;20027;-66
2022/12/15 10:28:05;;;;;;;12.52;6.15;;;;;;;-3.71;72.43;100492.19;5109307;28;20555;-67
2022/12/15 10:30:31;;;;;;;11.30;5.43;;;;;;;-3.77;72.51;100490.03;5099675;28;20112;-66
2022/12/15 10:33:15;;;;;;;8.75;5.18;;;;;;;-3.76;72.73;100490.88;5111685;28;20028;-66
2022/12/15 10:35:42;;;;;;;10.53;5.00;;;;;;;-3.91;73.06;100490.22;5109825;28;20089;-66
2022/12/15 10:38:46;;;;;;;7.00;4.90;;;;;;;-3.96;73.42;100482.69;5100406;28;20218;-67
2022/12/15 10:41:14;;;;;;;9.77;5.05;;;;;;;-4.06;73.71;100468.53;5093732;28;20054;-66
2022/12/15 10:43:43;;;;;;;7.47;5.07;;;;;;;-4.24;73.83;100491.72;5104159;28;20391;-66
2022/12/15 10:46:18;;;;;;;8.35;5.32;;;;;;;-4.23;73.37;100468.97;5113673;28;20084;-66
2022/12/15 10:48:50;;;;;;;7.60;5.07;;;;;;;-4.20;73.94;100495.00;5085096;28;20096;-66
2022/12/15 10:51:23;;;;;;;8.23;4.82;;;;;;;-3.98;73.65;100494.25;5108855;28;20027;-66
2022/12/15 10:54:11;;;;;;;8.20;5.05;;;;;;;-3.88;73.51;100505.75;5109269;28;20382;-66
2022/12/15 10:57:15;;;;;;;10.80;5.00;;;;;;;-3.71;73.17;100494.81;5083690;28;20057;-66
2022/12/15 10:59:41;;;;;;;18.70;9.90;;;;;;;-3.60;73.01;100492.22;5078696;28;20066;-66
2022/12/15 11:02:32;;;;;;;18.42;8.40;;;;;;;-3.48;73.18;100510.66;5111370;28;20048;-66
2022/12/15 11:05:14;;;;;;;14.68;7.22;;;;;;;-3.28;73.01;100514.41;5089217;28;20393;-67
2022/12/15 11:07:53;;;;;;;12.98;5.60;;;;;;;-3.59;72.71;100451.00;5104887;28;20398;-66
2022/12/15 11:10:26;;;;;;;16.67;5.53;;;;;;;-3.27;73.00;100492.41;5112309;28;20095;-66
2022/12/15 11:12:56;;;;;;;8.88;5.38;;;;;;;-3.08;73.10;100518.97;5102561;28;20036;-67
2022/12/15 11:15:24;;;;;;;18.13;4.97;;;;;;;-3.20;72.94;100526.03;5107614;28;20061;-67
2022/12/15 11:18:10;;;;;;;9.13;4.95;;;;;;;-3.22;72.79;100521.84;5108684;28;20034;-67
2022/12/15 11:20:50;;;;;;;13.10;4.82;;;;;;;-3.32;72.71;100526.94;5098909;28;20110;-67
2022/12/15 11:23:27;;;;;;;12.75;4.95;;;;;;;-3.38;73.00;100533.53;5107014;28;20031;-67
2022/12/15 11:26:12;;;;;;;6.85;4.45;;;;;;;-3.38;73.09;100544.06;5110706;28;20035;-67
2022/12/15 11:28:47;;;;;;;7.82;4.68;;;;;;;-3.39;73.30;100550.25;5099169;28;20043;-67
2022/12/15 11:31:36;;;;;;;10.00;5.25;;;;;;;-3.31;72.95;100552.34;5109156;28;20076;-67
2022/12/15 11:34:02;;;;;;;7.95;5.30;;;;;;;-3.62;73.28;100514.34;5102654;28;20102;-67
2022/12/15 11:37:02;;;;;;;10.48;6.03;;;;;;;-3.51;73.47;100559.06;5100598;28;20032;-67
2022/12/15 11:39:48;;;;;;;8.25;4.57;;;;;;;-3.54;74.27;100567.22;5084658;28;20082;-67
2022/12/15 11:42:32;;;;;;;11.85;4.55;;;;;;;-3.55;74.05;100563.72;5074480;28;20044;-67
2022/12/15 11:45:24;;;;;;;7.88;4.70;;;;;;;-3.45;74.07;100563.03;5066657;28;20035;-67
2022/12/15 11:48:24;;;;;;;5.03;3.55;;;;;;;-3.28;74.28;100574.91;5081525;28;20063;-67
2022/12/15 11:51:03;;;;;;;5.97;3.90;;;;;;;-3.24;73.75;100550.91;5065311;28;20463;-67
2022/12/15 11:53:48;;;;;;;8.00;4.45;;;;;;;-3.19;73.53;100568.97;5084120;28;20423;-67
2022/12/15 11:56:38;;;;;;;6.97;3.67;;;;;;;-3.17;73.41;100567.06;5074995;28;20048;-66
2022/12/15 11:59:28;;;;;;;7.25;3.95;;;;;;;-3.13;73.64;100573.75;5072368;28;20059;-67
2022/12/15 12:02:16;;;;;;;6.57;4.10;;;;;;;-3.03;73.57;100574.75;5085248;28;20518;-67
2022/12/15 12:05:20;;;;;;;5.60;3.95;;;;;;;-2.83;73.41;100567.94;5065596;28;20586;-67
2022/12/15 12:07:49;;;;;;;5.90;4.10;;;;;;;-2.78;73.26;100567.56;5065690;28;20040;-68
2022/12/15 12:10:29;;;;;;;8.55;4.65;;;;;;;-2.73;73.47;100573.34;5116413;28;20047;-72
2022/12/15 12:13:15;;;;;;;6.88;4.35;;;;;;;-2.66;72.69;100580.63;5109548;28;20451;-67
2022/12/15 12:15:52;;;;;;;8.02;4.82;;;;;;;-2.62;73.14;100584.72;5110400;28;20052;-67
2022/12/15 12:18:46;;;;;;;8.93;6.18;;;;;;;-2.75;72.66;100583.13;5115142;28;20037;-67
2022/12/15 12:21:15;;;;;;;7.03;4.45;;;;;;;-2.86;72.92;100574.28;5078156;28;20056;-67
2022/12/15 12:23:59;;;;;;;10.27;5.57;;;;;;;-2.81;72.94;100578.34;5062344;28;20036;-67
2022/12/15 12:26:42;;;;;;;8.60;4.88;;;;;;;-2.79;72.99;100581.69;5079123;28;20044;-66
2022/12/15 12:29:34;;;;;;;7.90;4.55;;;;;;;-2.79;73.15;100589.59;5079466;28;20035;-66
2022/12/15 12:32:23;;;;;;;7.60;4.40;;;;;;;-2.90;72.85;100587.81;5061618;28;20033;-66
2022/12/15 12:35:11;;;;;;;7.18;4.28;;;;;;;-3.09;73.47;100601.53;5063518;28;20031;-66
2022/12/15 12:37:39;;;;;;;8.27;4.97;;;;;;;-3.16;73.51;100601.16;5058973;28;20041;-68
2022/12/15 12:40:21;;;;;;;8.55;4.82;;;;;;;-3.57;74.29;100572.69;5074226;28;20137;-66
2022/12/15 12:42:59;;;;;;;9.00;5.05;;;;;;;-3.36;74.52;100600.00;5062932;28;20040;-67
2022/12/15 12:45:43;;;;;;;11.13;7.28;;;;;;;-3.15;74.27;100602.81;5078653;28;20110;-66
2022/12/15 12:48:32;;;;;;;10.20;7.05;;;;;;;-3.19;74.15;100605.81;5062015;28;20156;-66
2022/12/15 12:51:30;;;;;;;7.45;4.78;;;;;;;-3.25;74.36;100601.00;5064774;28;20052;-66
2022/12/15 12:53:57;;;;;;;9.13;4.30;;;;;;;-3.40;74.07;100569.63;5130944;27;20059;-66
2022/12/15 12:56:40;;;;;;;17.10;8.65;;;;;;;-3.13;74.09;100597.44;5103084;28;20492;-68
2022/12/15 12:59:27;;;;;;;13.40;6.95;;;;;;;-3.00;74.00;100600.81;5114645;28;20080;-67
2022/12/15 13:02:15;;;;;;;10.07;5.07;;;;;;;-3.08;74.09;100595.28;5115396;28;20368;-66
2022/12/15 13:05:20;;;;;;;9.75;5.47;;;;;;;-3.45;74.40;100589.34;5086674;28;20028;-66
2022/12/15 13:08:15;;;;;;;8.70;5.07;;;;;;;-3.21;74.50;100599.81;5107749;28;20054;-68
2022/12/15 13:10:46;;;;;;;8.77;5.22;;;;;;;-3.36;75.17;100596.56;5087273;28;20023;-66
2022/12/15 13:13:26;;;;;;;10.82;5.38;;;;;;;-3.51;76.04;100603.78;5113810;28;20044;-66
2022/12/15 13:16:05;;;;;;;9.02;5.45;;;;;;;-3.70;77.18;100603.47;5114853;28;20032;-66
2022/12/15 13:18:53;;;;;;;9.40;5.65;;;;;;;-3.47;76.64;100610.50;5103553;28;20407;-66
2022/12/15 13:21:40;;;;;;;9.90;5.45;;;;;;;-3.67;77.77;100611.16;5113518;28;20027;-66
2022/12/15 13:24:32;;;;;;;10.30;6.18;;;;;;;-3.57;77.54;100623.50;5115292;28;20028;-66
2022/12/15 13:27:13;;;;;;;11.77;5.35;;;;;;;-3.57;77.41;100625.28;5091199;28;20036;-67
2022/12/15 13:30:07;;;;;;;8.95;5.63;;;;;;;-3.60;77.98;100630.78;5107098;28;20048;-66
2022/12/15 13:32:52;;;;;;;9.88;5.63;;;;;;;-3.54;77.70;100632.97;5118349;28;20023;-66
2022/12/15 13:35:18;;;;;;;10.65;6.47;;;;;;;-3.41;77.18;100632.88;5109621;28;20096;-65
2022/12/15 13:37:57;;;;;;;12.93;6.40;;;;;;;-3.37;76.99;100636.97;5108702;28;20023;-66
2022/12/15 13:40:35;;;;;;;11.55;6.22;;;;;;;-3.44;76.63;100636.59;5116409;28;20035;-66
2022/12/15 13:43:03;;;;;;;9.80;6.00;;;;;;;-3.48;76.36;100640.38;5106909;28;20367;-67
2022/12/15 13:45:38;;;;;;;9.60;5.88;;;;;;;-3.77;77.38;100637.25;5110814;28;20039;-66
2022/12/15 13:48:15;;;;;;;;;;;;;;;-3.80;78.11;100640.94;5114601;28;20023;-67
2022/12/15 13:51:02;;;;;;;12.40;7.05;;;;;;;-3.72;78.09;100640.38;5087161;28;20328;-66
2022/12/15 13:53:36;;;;;;;12.25;6.85;;;;;;;-3.75;77.75;100639.78;5109443;28;20024;-66
2022/12/15 13:56:20;;;;;;;12.73;6.93;;;;;;;-3.76;77.72;100636.31;5114691;28;20110;-66
2022/12/15 13:58:55;;;;;;;12.75;7.35;;;;;;;-3.81;77.91;100646.31;5103974;28;20430;-66
2022/12/15 14:01:28;;;;;;;13.98;8.95;;;;;;;-3.98;77.71;100615.97;5111625;28;20380;-66
2022/12/15 14:04:14;;;;;;;18.15;11.02;;;;;;;-3.92;78.11;100649.72;5112028;28;20042;-66
2022/12/15 14:07:07;;;;;;;43.25;19.85;;;;;;;-3.94;78.41;100651.63;5101865;28;20023;-66
2022/12/15 14:09:36;;;;;;;12.00;7.38;;;;;;;-3.99;78.03;100637.13;5069119;28;20474;-67